Colby, KS (67701)

7:04 PM CDT on September 01, 2015 (GMT -0500)
145 E Cherry - K0FJ | | Change Station
CLOSE
Current Station
Personal Weather Station
Location: Colby, KS
Elevation: 3150 ft
Nearby Weather Stations

Elev 3150 ft 39.39 °N, 101.05 °W | Updated 3 minutes ago

Scattered Clouds
Scattered Clouds
90.7 °F
Feels Like 89 °F
N
6.0
Wind Variable Wind from SSW
Gusts 6.0 mph

Today
High -- | Low -- °F
--% Chance of Precip.
Yesterday
High -- | Low -- °F
Precip. -- in
7:12 AM 8:15 PM
Waning Gibbous, 85% visible
Pressure 29.93 in
Visibility 10.0 miles
Clouds Scattered Clouds 9000 ft
Heat Index 89 °F
Dew Point 56 °F
Humidity 31%
Rainfall 0.07 in
Snow Depth Not available.
UV 1 out of 12
Pollen 10.20 out of 12
Air Quality Not available.
Flu Activity Not available.
METAR KCBK 012355Z AUTO 15011G15KT 10SM SCT090 32/15 A2993 RMK AO2
Pressure 29.93 in
Visibility 10.0 miles
Clouds Scattered Clouds 9000 ft
Heat Index 89 °F
Dew Point 56 °F
Humidity 31%
Rainfall 0.07 in
Snow Depth Not available.
UV 1 out of 12
Pollen 10.20 out of 12
Air Quality Not available.
Flu Activity Not available.
METAR KCBK 012355Z AUTO 15011G15KT 10SM SCT090 32/15 A2993 RMK AO2

10-Day Weather Forecast

×

Almanac

Astronomy

Sep. 01, 2015 Rise Set
Actual Time
Civil Twilight
Nautical Twilight
Astronomical Twilight
Moon
Length of Visible Light
Length of Day
Tomorrow will be .
, % of the Moon is Illuminated

Today's Extremes

State Highs State Lows

Community

WunderPhotos

Upload Photos

1,851,653 photos uploaded!

WunderBlogs® & News

Nearby

Air Quality

  Air Quality AQ Index Pollutant
Not available.

Snow Depth

Station Depth Elevation

Earthquake Activity

City Distance Mag. Time & Date
Minimum magnitude displayed is 2.5.

Coastal Water Temperatures

Place Temperature

Stations

Nearby Weather Stations

Station Location Temp. Windchill Dew Point Humidity Wind Precip. Elev Updated Type